Time,TemperatureF,DewpointF,PressureIn,WindDirection,WindDirectionDegrees,WindSpeedMPH,WindSpeedGustMPH,Humidity,HourlyPrecipIn,Conditions,Clouds,dailyrainin,SoftwareType,DateUTC
2013-02-13 00:07:00,28.0,22.6,29.18,NNE,22,0.0,-999.0,80,-99.99,,,0.00,Acu-Link.com,2013-02-13 06:07:00,
2013-02-13 00:22:00,28.2,23.1,29.17,WNW,292,0.0,-999.0,81,-99.99,,,0.00,Acu-Link.com,2013-02-13 06:22:00,
2013-02-13 00:37:00,28.2,23.4,29.17,West,270,0.0,-999.0,82,-99.99,,,0.00,Acu-Link.com,2013-02-13 06:37:00,
2013-02-13 00:52:00,27.9,23.1,29.17,NW,315,0.0,-999.0,82,-99.99,,,0.00,Acu-Link.com,2013-02-13 06:52:00,
2013-02-13 01:07:00,27.7,22.9,29.16,WSW,247,0.0,-999.0,82,-99.99,,,0.00,Acu-Link.com,2013-02-13 07:07:00,
2013-02-13 01:22:00,27.7,22.9,29.16,NW,315,0.0,-999.0,82,-99.99,,,0.00,Acu-Link.com,2013-02-13 07:22:00,
2013-02-13 01:38:00,27.3,22.3,29.16,North,0,0.0,-999.0,81,-99.99,,,0.00,Acu-Link.com,2013-02-13 07:38:00,
2013-02-13 01:53:00,27.7,22.6,29.16,North,0,0.0,-999.0,81,-99.99,,,0.00,Acu-Link.com,2013-02-13 07:53:00,
2013-02-13 02:08:00,27.9,23.1,29.16,NW,315,0.0,-999.0,82,-99.99,,,0.00,Acu-Link.com,2013-02-13 08:08:00,
2013-02-13 02:23:00,27.9,23.1,29.16,NNW,337,0.0,-999.0,82,-99.99,,,0.00,Acu-Link.com,2013-02-13 08:23:00,
2013-02-13 02:38:00,27.9,23.1,29.16,NNE,22,0.0,-999.0,82,-99.99,,,0.00,Acu-Link.com,2013-02-13 08:38:00,
2013-02-13 02:53:00,27.7,22.9,29.15,NNW,337,0.0,-999.0,82,-99.99,,,0.00,Acu-Link.com,2013-02-13 08:53:00,
2013-02-13 03:16:00,27.7,22.9,29.14,WNW,292,0.0,-999.0,82,-99.99,,,0.00,Acu-Link.com,2013-02-13 09:16:00,
2013-02-13 03:31:00,27.7,22.9,29.14,NE,45,0.0,-999.0,82,-99.99,,,0.00,Acu-Link.com,2013-02-13 09:31:00,
2013-02-13 03:46:00,27.5,22.7,29.13,NW,315,0.0,-999.0,82,-99.99,,,0.00,Acu-Link.com,2013-02-13 09:46:00,
2013-02-13 04:01:00,27.3,22.5,29.13,NW,315,0.0,-999.0,82,-99.99,,,0.00,Acu-Link.com,2013-02-13 10:01:00,
2013-02-13 04:17:00,27.3,22.5,29.12,NW,315,0.0,-999.0,82,-99.99,,,0.00,Acu-Link.com,2013-02-13 10:17:00,
2013-02-13 04:32:00,27.1,22.3,29.12,WNW,292,0.0,-999.0,82,-99.99,,,0.00,Acu-Link.com,2013-02-13 10:32:00,
2013-02-13 04:47:00,26.8,22.1,29.12,West,270,0.0,-999.0,82,-99.99,,,0.00,Acu-Link.com,2013-02-13 10:47:00,
2013-02-13 05:02:00,26.8,22.1,29.12,NW,315,0.0,-999.0,82,-99.99,,,0.00,Acu-Link.com,2013-02-13 11:02:00,
2013-02-13 05:17:00,26.8,22.1,29.12,North,0,0.0,-999.0,82,-99.99,,,0.00,Acu-Link.com,2013-02-13 11:17:00,
2013-02-13 05:32:00,26.6,21.9,29.12,North,0,0.0,-999.0,82,-99.99,,,0.00,Acu-Link.com,2013-02-13 11:32:00,
2013-02-13 05:47:00,26.6,21.9,29.12,North,0,0.0,-999.0,82,-99.99,,,0.00,Acu-Link.com,2013-02-13 11:47:00,
2013-02-13 06:02:00,26.4,21.7,29.12,NNW,337,0.0,-999.0,82,-99.99,,,0.00,Acu-Link.com,2013-02-13 12:02:00,
2013-02-13 06:18:00,26.2,21.5,29.12,North,0,0.0,-999.0,82,-99.99,,,0.00,Acu-Link.com,2013-02-13 12:18:00,
2013-02-13 06:33:00,26.1,21.1,29.11,NNW,337,0.0,-999.0,81,-99.99,,,0.00,Acu-Link.com,2013-02-13 12:33:00,
2013-02-13 06:48:00,26.1,21.1,29.11,North,0,0.0,-999.0,81,-99.99,,,0.00,Acu-Link.com,2013-02-13 12:48:00,
2013-02-13 07:03:00,25.9,20.9,29.11,NW,315,0.0,-999.0,81,-99.99,,,0.00,Acu-Link.com,2013-02-13 13:03:00,
2013-02-13 07:18:00,25.9,20.9,29.12,NNW,337,0.0,-999.0,81,-99.99,,,0.00,Acu-Link.com,2013-02-13 13:18:00,
2013-02-13 07:33:00,25.9,20.9,29.11,NNW,337,0.0,-999.0,81,-99.99,,,0.00,Acu-Link.com,2013-02-13 13:33:00,
2013-02-13 07:48:00,26.4,21.4,29.12,WNW,292,0.0,-999.0,81,-99.99,,,0.00,Acu-Link.com,2013-02-13 13:48:00,
2013-02-13 08:03:00,26.8,21.8,29.12,North,0,0.0,-999.0,81,-99.99,,,0.00,Acu-Link.com,2013-02-13 14:03:00,
2013-02-13 08:18:00,28.4,23.6,29.13,NNE,22,0.0,-999.0,82,-99.99,,,0.00,Acu-Link.com,2013-02-13 14:18:00,
2013-02-13 08:34:00,29.7,24.9,29.13,NNW,337,0.0,-999.0,82,-99.99,,,0.00,Acu-Link.com,2013-02-13 14:34:00,
2013-02-13 08:49:00,31.1,26.0,29.13,NNW,337,0.0,-999.0,81,-99.99,,,0.00,Acu-Link.com,2013-02-13 14:49:00,
2013-02-13 09:04:00,32.0,26.8,29.13,West,270,0.0,-999.0,81,-99.99,,,0.00,Acu-Link.com,2013-02-13 15:04:00,
2013-02-13 09:19:00,32.9,27.1,29.12,ESE,112,0.0,-999.0,79,-99.99,,,0.00,Acu-Link.com,2013-02-13 15:19:00,
2013-02-13 09:34:00,33.8,27.4,29.13,NW,315,0.0,-999.0,77,-99.99,,,0.00,Acu-Link.com,2013-02-13 15:34:00,
2013-02-13 09:49:00,35.1,28.6,29.13,NW,315,0.0,-999.0,77,-99.99,,,0.00,Acu-Link.com,2013-02-13 15:49:00,
2013-02-13 10:04:00,36.5,29.3,29.13,WNW,292,0.0,-999.0,75,-99.99,,,0.00,Acu-Link.com,2013-02-13 16:04:00,
2013-02-13 10:19:00,38.8,30.6,29.13,NNW,337,0.0,-999.0,72,-99.99,,,0.00,Acu-Link.com,2013-02-13 16:19:00,
2013-02-13 10:34:00,38.7,30.5,29.13,North,0,0.0,-999.0,72,-99.99,,,0.00,Acu-Link.com,2013-02-13 16:34:00,
2013-02-13 10:50:00,40.5,31.1,29.13,NW,315,0.0,-999.0,69,-99.99,,,0.00,Acu-Link.com,2013-02-13 16:50:00,
2013-02-13 11:05:00,41.4,31.6,29.12,SW,225,0.0,-999.0,68,-99.99,,,0.00,Acu-Link.com,2013-02-13 17:05:00,
2013-02-13 11:20:00,41.9,32.1,29.12,NW,315,0.0,-999.0,68,-99.99,,,0.00,Acu-Link.com,2013-02-13 17:20:00,
2013-02-13 11:35:00,42.4,31.5,29.11,NW,315,0.0,-999.0,65,-99.99,,,0.00,Acu-Link.com,2013-02-13 17:35:00,
2013-02-13 11:50:00,45.0,33.6,29.11,WNW,292,0.0,-999.0,64,-99.99,,,0.00,Acu-Link.com,2013-02-13 17:50:00,
2013-02-13 12:05:00,45.3,33.9,29.10,West,270,0.0,-999.0,64,-99.99,,,0.00,Acu-Link.com,2013-02-13 18:05:00,
2013-02-13 12:20:00,46.2,34.3,29.10,West,270,0.0,-999.0,63,-99.99,,,0.00,Acu-Link.com,2013-02-13 18:20:00,
2013-02-13 12:35:00,46.8,34.5,29.08,WNW,292,0.0,-999.0,62,-99.99,,,0.00,Acu-Link.com,2013-02-13 18:35:00,
2013-02-13 12:50:00,47.1,34.4,29.08,North,0,0.0,-999.0,61,-99.99,,,0.00,Acu-Link.com,2013-02-13 18:50:00,
2013-02-13 13:06:00,48.4,34.7,29.06,West,270,0.0,-999.0,59,-99.99,,,0.00,Acu-Link.com,2013-02-13 19:06:00,
2013-02-13 13:21:00,48.9,34.3,29.07,WNW,292,0.0,-999.0,57,-99.99,,,0.00,Acu-Link.com,2013-02-13 19:21:00,
2013-02-13 13:36:00,49.5,34.9,29.06,NW,315,0.0,-999.0,57,-99.99,,,0.00,Acu-Link.com,2013-02-13 19:36:00,
2013-02-13 13:51:00,51.1,35.5,29.06,West,270,0.0,-999.0,55,-99.99,,,0.00,Acu-Link.com,2013-02-13 19:51:00,
2013-02-13 14:06:00,50.7,33.7,29.06,West,270,0.0,-999.0,52,-99.99,,,0.00,Acu-Link.com,2013-02-13 20:06:00,
2013-02-13 14:21:00,51.1,33.6,29.05,NW,315,0.0,-999.0,51,-99.99,,,0.00,Acu-Link.com,2013-02-13 20:21:00,
2013-02-13 14:36:00,52.3,34.7,29.05,SW,225,0.0,-999.0,51,-99.99,,,0.00,Acu-Link.com,2013-02-13 20:36:00,
2013-02-13 14:51:00,51.4,32.4,29.04,WNW,292,0.0,-999.0,48,-99.99,,,0.00,Acu-Link.com,2013-02-13 20:51:00,
2013-02-13 15:06:00,50.9,31.9,29.04,SE,135,0.0,-999.0,48,-99.99,,,0.00,Acu-Link.com,2013-02-13 21:06:00,
2013-02-13 15:21:00,51.4,32.4,29.04,North,0,0.0,-999.0,48,-99.99,,,0.00,Acu-Link.com,2013-02-13 21:21:00,
2013-02-13 15:37:00,51.4,32.4,29.04,North,0,0.0,-999.0,48,-99.99,,,0.00,Acu-Link.com,2013-02-13 21:37:00,
2013-02-13 15:52:00,52.0,31.9,29.04,West,270,0.0,-999.0,46,-99.99,,,0.00,Acu-Link.com,2013-02-13 21:52:00,
2013-02-13 16:07:00,50.9,32.4,29.04,WSW,247,0.0,-999.0,49,-99.99,,,0.00,Acu-Link.com,2013-02-13 22:07:00,
2013-02-13 16:22:00,51.8,31.1,29.03,WNW,292,0.0,-999.0,45,-99.99,,,0.00,Acu-Link.com,2013-02-13 22:22:00,
2013-02-13 16:37:00,51.4,30.8,29.03,WSW,247,0.0,-999.0,45,-99.99,,,0.00,Acu-Link.com,2013-02-13 22:37:00,
2013-02-13 16:52:00,50.9,31.4,29.03,NNW,337,0.0,-999.0,47,-99.99,,,0.00,Acu-Link.com,2013-02-13 22:52:00,
2013-02-13 17:07:00,49.1,31.8,29.02,SW,225,0.0,-999.0,51,-99.99,,,0.00,Acu-Link.com,2013-02-13 23:07:00,
2013-02-13 17:22:00,47.3,32.0,29.03,West,270,0.0,-999.0,55,-99.99,,,0.00,Acu-Link.com,2013-02-13 23:22:00,
2013-02-13 17:37:00,45.9,31.5,29.03,NW,315,0.0,-999.0,57,-99.99,,,0.00,Acu-Link.com,2013-02-13 23:37:00,
2013-02-13 17:53:00,44.6,31.6,29.02,WNW,292,0.0,-999.0,60,-99.99,,,0.00,Acu-Link.com,2013-02-13 23:53:00,
2013-02-13 18:08:00,42.8,30.7,29.03,SSW,202,0.0,-999.0,62,-99.99,,,0.00,Acu-Link.com,2013-02-14 00:08:00,
2013-02-13 18:23:00,41.7,30.8,29.03,NE,45,0.0,-999.0,65,-99.99,,,0.00,Acu-Link.com,2013-02-14 00:23:00,
2013-02-13 18:38:00,41.0,30.9,29.03,South,180,0.0,-999.0,67,-99.99,,,0.00,Acu-Link.com,2013-02-14 00:38:00,
2013-02-13 18:53:00,40.3,31.0,29.02,South,180,0.0,-999.0,69,-99.99,,,0.00,Acu-Link.com,2013-02-14 00:53:00,
2013-02-13 19:08:00,40.3,31.3,29.02,SW,225,0.0,-999.0,70,-99.99,,,0.00,Acu-Link.com,2013-02-14 01:08:00,
2013-02-13 19:24:00,40.3,31.7,29.01,SW,225,0.0,-999.0,71,-99.99,,,0.00,Acu-Link.com,2013-02-14 01:24:00,
2013-02-13 19:39:00,40.6,31.9,29.01,South,180,0.0,-999.0,71,-99.99,,,0.00,Acu-Link.com,2013-02-14 01:39:00,
2013-02-13 19:54:00,41.0,32.0,29.01,WSW,247,0.0,-999.0,70,-99.99,,,0.00,Acu-Link.com,2013-02-14 01:54:00,
2013-02-13 20:09:00,40.5,31.5,29.01,SSW,202,0.0,-999.0,70,-99.99,,,0.00,Acu-Link.com,2013-02-14 02:09:00,
2013-02-13 20:24:00,40.3,31.3,29.00,SW,225,0.0,-999.0,70,-99.99,,,0.00,Acu-Link.com,2013-02-14 02:24:00,
2013-02-13 20:39:00,40.3,31.3,28.99,West,270,0.0,-999.0,70,-99.99,,,0.00,Acu-Link.com,2013-02-14 02:39:00,
2013-02-13 20:54:00,40.1,31.1,29.00,SSW,202,0.0,-999.0,70,-99.99,,,0.00,Acu-Link.com,2013-02-14 02:54:00,
2013-02-13 21:09:00,40.1,31.5,28.99,SW,225,0.0,-999.0,71,-99.99,,,0.00,Acu-Link.com,2013-02-14 03:09:00,
2013-02-13 21:24:00,40.3,31.3,28.99,NE,45,0.0,-999.0,70,-99.99,,,0.00,Acu-Link.com,2013-02-14 03:24:00,
2013-02-13 21:40:00,39.7,31.1,29.00,South,180,0.0,-999.0,71,-99.99,,,0.00,Acu-Link.com,2013-02-14 03:40:00,
2013-02-13 21:55:00,39.6,31.3,29.00,NE,45,0.0,-999.0,72,-99.99,,,0.00,Acu-Link.com,2013-02-14 03:55:00,
2013-02-13 22:10:00,39.4,31.5,29.00,SW,225,0.0,-999.0,73,-99.99,,,0.00,Acu-Link.com,2013-02-14 04:10:00,
2013-02-13 22:25:00,38.8,31.2,29.00,North,0,0.0,-999.0,74,-99.99,,,0.00,Acu-Link.com,2013-02-14 04:25:00,
2013-02-13 22:40:00,38.3,31.4,29.01,NW,315,0.0,-999.0,76,-99.99,,,0.00,Acu-Link.com,2013-02-14 04:40:00,
2013-02-13 22:55:00,38.3,31.4,29.01,NW,315,0.0,-999.0,76,-99.99,,,0.00,Acu-Link.com,2013-02-14 04:55:00,
2013-02-13 23:10:00,37.4,30.9,29.01,WNW,292,0.0,-999.0,77,-99.99,,,0.00,Acu-Link.com,2013-02-14 05:10:00,
2013-02-13 23:25:00,36.5,30.3,29.01,SW,225,0.0,-999.0,78,-99.99,,,0.00,Acu-Link.com,2013-02-14 05:25:00,
2013-02-13 23:40:00,36.0,30.4,29.01,NW,315,0.0,-999.0,80,-99.99,,,0.00,Acu-Link.com,2013-02-14 05:40:00,
2013-02-13 23:55:00,36.0,30.4,29.02,NW,315,0.0,-999.0,80,-99.99,,,0.00,Acu-Link.com,2013-02-14 05:55:00,